Time;durP1;ratioP1;P1;durP2;ratioP2;P2;SDS_P1;SDS_P2;PMS_P1;PMS_P2;Temp;Humidity;BMP_temperature;BMP_pressure;BME280_temperature;BME280_humidity;BME280_pressure;Samples;Min_cycle;Max_cycle;Signal;HPM_P1;HPM_P2
2021/08/25 00:01:56;;;;;;;;;;;;;;;;;;5024675;28;19953;-74
2021/08/25 00:04:21;;;;;;;;;;;;;;;;;;5020924;28;19918;-74
2021/08/25 00:06:46;;;;;;;;;;;;;;;;;;5055341;28;19918;-74
2021/08/25 00:09:12;;;;;;;;;;;;;;;;;;5018334;28;19943;-74
2021/08/25 00:11:37;;;;;;;;;;;;;;;;;;5020230;28;19918;-74
2021/08/25 00:14:02;;;;;;;;;;;;;;;;;;5027005;28;19928;-74
2021/08/25 00:16:27;;;;;;;;;;;;;;;;;;5021754;28;19931;-74
2021/08/25 00:18:52;;;;;;;;;;;;;;;;;;5026538;28;19914;-74
2021/08/25 00:21:18;;;;;;;;;;;;;;;;;;5039961;28;19928;-73
2021/08/25 00:23:43;;;;;;;;;;;;;;;;;;5023173;28;20244;-73
2021/08/25 00:26:08;;;;;;;;;;;;;;;;;;5027137;28;19960;-74
2021/08/25 00:28:34;;;;;;;;;;;;;;;;;;5036580;28;19948;-74
2021/08/25 00:31:00;;;;;;;;;;;;;;;;;;5028199;28;19944;-73
2021/08/25 00:33:25;;;;;;;;;;;;;;;;;;5023276;28;19921;-74
2021/08/25 00:35:50;;;;;;;;;;;;;;;;;;5022686;28;19924;-74
2021/08/25 00:38:15;;;;;;;;;;;;;;;;;;5026579;28;19932;-74
2021/08/25 00:40:43;;;;;;;;;;;;;;;;;;5020879;28;19924;-74
2021/08/25 00:43:08;;;;;;;;;;;;;;;;;;5028247;28;19944;-74
2021/08/25 00:45:33;;;;;;;;;;;;;;;;;;5020044;28;19913;-74
2021/08/25 00:47:58;;;;;;;;;;;;;;;;;;5018011;28;20012;-73
2021/08/25 00:50:24;;;;;;;;;;;;;;;;;;5023085;28;19968;-73
2021/08/25 00:52:49;;;;;;;;;;;;;;;;;;5020713;28;19941;-74
2021/08/25 00:55:14;;;;;;;;;;;;;;;;;;5024756;28;19909;-74
2021/08/25 00:57:40;;;;;;;;;;;;;;;;;;5019563;28;19918;-74
2021/08/25 01:00:05;;;;;;;;;;;;;;;;;;5020434;28;19922;-73
2021/08/25 01:02:30;;;;;;;;;;;;;;;;;;5026693;28;19945;-73
2021/08/25 01:04:57;;;;;;;;;;;;;;;;;;5022453;28;19924;-74
2021/08/25 01:07:22;;;;;;;;;;;;;;;;;;5028229;28;19918;-74
2021/08/25 01:09:48;;;;;;;;;;;;;;;;;;5019610;28;20122;-74
2021/08/25 01:12:13;;;;;;;;;;;;;;;;;;5021412;28;19924;-74
2021/08/25 01:14:38;;;;;;;;;;;;;;;;;;5024994;28;19921;-74
2021/08/25 01:17:03;;;;;;;;;;;;;;;;;;5018699;28;19977;-74
2021/08/25 01:19:29;;;;;;;;;;;;;;;;;;5025004;28;19917;-73
2021/08/25 01:21:54;;;;;;;;;;;;;;;;;;5018173;28;19918;-74
2021/08/25 01:24:19;;;;;;;;;;;;;;;;;;5019166;28;20007;-74
2021/08/25 01:26:44;;;;;;;;;;;;;;;;;;5022473;28;19997;-74
2021/08/25 01:29:10;;;;;;;;;;;;;;;;;;5050429;28;20013;-74
2021/08/25 01:31:35;;;;;;;;;;;;;;;;;;5025411;28;19912;-73
2021/08/25 01:34:01;;;;;;;;;;;;;;;;;;5017862;28;20040;-74
2021/08/25 01:36:26;;;;;;;;;;;;;;;;;;5016821;28;19920;-74
2021/08/25 01:38:53;;;;;;;;;;;;;;;;;;5024214;28;19917;-74
2021/08/25 01:41:19;;;;;;;;;;;;;;;;;;5018067;28;19909;-74
2021/08/25 01:43:45;;;;;;;;;;;;;;;;;;5054879;28;19998;-74
2021/08/25 01:46:10;;;;;;;;;;;;;;;;;;5016290;28;20038;-74
2021/08/25 01:48:35;;;;;;;;;;;;;;;;;;5015471;28;19922;-73
2021/08/25 01:51:01;;;;;;;;;;;;;;;;;;5053894;28;19945;-73
2021/08/25 01:53:26;;;;;;;;;;;;;;;;;;5016310;28;19939;-73
2021/08/25 01:55:51;;;;;;;;;;;;;;;;;;5023515;28;19913;-73
2021/08/25 01:58:16;;;;;;;;;;;;;;;;;;5016586;28;19972;-73
2021/08/25 02:00:42;;;;;;;;;;;;;;;;;;5014837;28;19973;-74
2021/08/25 02:03:07;;;;;;;;;;;;;;;;;;5021624;28;19918;-74
2021/08/25 02:05:32;;;;;;;;;;;;;;;;;;5016359;28;19918;-73
2021/08/25 02:07:57;;;;;;;;;;;;;;;;;;5023196;28;20207;-74
2021/08/25 02:10:22;;;;;;;;;;;;;;;;;;5019390;28;19909;-74
2021/08/25 02:12:48;;;;;;;;;;;;;;;;;;5015490;28;19949;-73
2021/08/25 02:15:13;;;;;;;;;;;;;;;;;;5037033;28;19973;-73
2021/08/25 02:17:38;;;;;;;;;;;;;;;;;;5017690;28;19921;-74
2021/08/25 02:20:03;;;;;;;;;;;;;;;;;;5020431;28;19929;-74
2021/08/25 02:22:28;;;;;;;;;;;;;;;;;;5018303;28;19918;-73
2021/08/25 02:24:54;;;;;;;;;;;;;;;;;;5015363;28;19924;-74
2021/08/25 02:27:19;;;;;;;;;;;;;;;;;;5024782;28;19936;-74
2021/08/25 02:29:44;;;;;;;;;;;;;;;;;;5020461;28;19902;-73
2021/08/25 02:32:09;;;;;;;;;;;;;;;;;;5028837;28;19917;-74
2021/08/25 02:34:35;;;;;;;;;;;;;;;;;;5046830;28;19931;-73
2021/08/25 02:37:00;;;;;;;;;;;;;;;;;;5047605;28;19943;-73
2021/08/25 02:39:25;;;;;;;;;;;;;;;;;;5020440;28;19918;-74
2021/08/25 02:41:50;;;;;;;;;;;;;;;;;;5015410;28;19917;-73
2021/08/25 02:44:18;;;;;;;;;;;;;;;;;;5020794;28;19914;-74
2021/08/25 02:46:43;;;;;;;;;;;;;;;;;;5046236;28;20224;-74
2021/08/25 02:49:08;;;;;;;;;;;;;;;;;;5031803;28;19917;-74
2021/08/25 02:51:33;;;;;;;;;;;;;;;;;;5022833;28;19923;-74
2021/08/25 02:53:58;;;;;;;;;;;;;;;;;;5015939;28;19972;-74
2021/08/25 02:56:24;;;;;;;;;;;;;;;;;;5024718;28;19921;-74
2021/08/25 02:58:51;;;;;;;;;;;;;;;;;;5017511;28;19917;-74
2021/08/25 03:01:17;;;;;;;;;;;;;;;;;;5017316;28;19924;-74
2021/08/25 03:03:42;;;;;;;;;;;;;;;;;;5021493;28;19911;-74
2021/08/25 03:06:07;;;;;;;;;;;;;;;;;;5018631;28;19992;-74
2021/08/25 03:08:32;;;;;;;;;;;;;;;;;;5020925;28;19917;-74
2021/08/25 03:10:57;;;;;;;;;;;;;;;;;;5015144;28;19985;-73
2021/08/25 03:13:23;;;;;;;;;;;;;;;;;;5018846;28;19967;-74
2021/08/25 03:15:48;;;;;;;;;;;;;;;;;;5020088;28;19917;-74
2021/08/25 03:18:13;;;;;;;;;;;;;;;;;;5017224;28;19909;-74
2021/08/25 03:20:38;;;;;;;;;;;;;;;;;;5057163;28;19981;-74
2021/08/25 03:23:03;;;;;;;;;;;;;;;;;;5034928;28;19917;-73
2021/08/25 03:25:31;;;;;;;;;;;;;;;;;;5015322;28;19921;-73
2021/08/25 03:27:56;;;;;;;;;;;;;;;;;;5028172;28;19913;-73
2021/08/25 03:30:21;;;;;;;;;;;;;;;;;;5045995;28;20178;-73
2021/08/25 03:32:47;;;;;;;;;;;;;;;;;;5022387;28;19924;-73
2021/08/25 03:35:12;;;;;;;;;;;;;;;;;;5050026;28;19918;-73
2021/08/25 03:37:38;;;;;;;;;;;;;;;;;;5019192;28;19965;-73
2021/08/25 03:40:03;;;;;;;;;;;;;;;;;;5019524;28;19933;-74
2021/08/25 03:42:28;;;;;;;;;;;;;;;;;;5015060;28;19909;-73
2021/08/25 03:44:54;;;;;;;;;;;;;;;;;;5021788;28;20047;-74
2021/08/25 03:47:19;;;;;;;;;;;;;;;;;;5022665;28;19952;-76
2021/08/25 03:49:44;;;;;;;;;;;;;;;;;;5016524;28;19924;-74
2021/08/25 03:52:09;;;;;;;;;;;;;;;;;;5039453;28;20101;-74
2021/08/25 03:54:35;;;;;;;;;;;;;;;;;;5015719;28;19936;-74
2021/08/25 03:57:00;;;;;;;;;;;;;;;;;;5020618;28;19921;-74
2021/08/25 03:59:25;;;;;;;;;;;;;;;;;;5016126;28;19918;-76
2021/08/25 04:01:50;;;;;;;;;;;;;;;;;;5011975;28;19901;-74
2021/08/25 04:04:16;;;;;;;;;;;;;;;;;;5052910;28;19914;-74
2021/08/25 04:06:41;;;;;;;;;;;;;;;;;;5045073;28;19914;-74
2021/08/25 04:09:08;;;;;;;;;;;;;;;;;;5019880;28;19944;-74
2021/08/25 04:11:33;;;;;;;;;;;;;;;;;;5018943;28;19924;-73
2021/08/25 04:13:58;;;;;;;;;;;;;;;;;;5020980;28;19932;-75
2021/08/25 04:16:23;;;;;;;;;;;;;;;;;;5020079;28;19917;-76
2021/08/25 04:18:48;;;;;;;;;;;;;;;;;;5014996;28;19969;-74
2021/08/25 04:21:14;;;;;;;;;;;;;;;;;;5017679;28;19902;-74
2021/08/25 04:23:39;;;;;;;;;;;;;;;;;;5018015;28;19948;-74
2021/08/25 04:26:04;;;;;;;;;;;;;;;;;;5013093;28;19921;-74
2021/08/25 04:28:29;;;;;;;;;;;;;;;;;;5021407;28;19901;-74
2021/08/25 04:30:55;;;;;;;;;;;;;;;;;;5014458;28;19917;-73
2021/08/25 04:33:20;;;;;;;;;;;;;;;;;;5021627;28;19976;-73
2021/08/25 04:35:45;;;;;;;;;;;;;;;;;;5021414;28;19922;-74
2021/08/25 04:38:10;;;;;;;;;;;;;;;;;;5015010;28;20417;-74
2021/08/25 04:40:36;;;;;;;;;;;;;;;;;;5052689;28;19945;-74
2021/08/25 04:43:01;;;;;;;;;;;;;;;;;;5049588;28;19921;-74
2021/08/25 04:45:26;;;;;;;;;;;;;;;;;;5024788;28;19917;-74
2021/08/25 04:47:51;;;;;;;;;;;;;;;;;;5051419;28;19917;-74
2021/08/25 04:50:17;;;;;;;;;;;;;;;;;;5018966;28;19928;-74
2021/08/25 04:52:42;;;;;;;;;;;;;;;;;;5026970;28;19922;-74
2021/08/25 04:55:07;;;;;;;;;;;;;;;;;;5051493;28;19929;-74
2021/08/25 04:57:32;;;;;;;;;;;;;;;;;;5025347;28;19936;-74
2021/08/25 04:59:57;;;;;;;;;;;;;;;;;;5049083;28;19917;-74
2021/08/25 05:02:23;;;;;;;;;;;;;;;;;;5019358;28;19941;-74
2021/08/25 05:04:48;;;;;;;;;;;;;;;;;;5025613;28;19978;-74
2021/08/25 05:07:13;;;;;;;;;;;;;;;;;;5036016;28;19913;-74
2021/08/25 05:09:38;;;;;;;;;;;;;;;;;;5024968;28;19921;-74
2021/08/25 05:12:03;;;;;;;;;;;;;;;;;;5018999;28;19918;-74
2021/08/25 05:14:29;;;;;;;;;;;;;;;;;;5049988;28;19983;-74
2021/08/25 05:16:54;;;;;;;;;;;;;;;;;;5023315;28;19917;-74
2021/08/25 05:19:19;;;;;;;;;;;;;;;;;;5019168;28;19941;-74
2021/08/25 05:21:44;;;;;;;;;;;;;;;;;;5024560;28;19929;-75
2021/08/25 05:24:10;;;;;;;;;;;;;;;;;;5033696;28;20116;-75
2021/08/25 05:26:35;;;;;;;;;;;;;;;;;;5018994;28;19917;-75
2021/08/25 05:29:00;;;;;;;;;;;;;;;;;;5024055;28;19917;-75
2021/08/25 05:31:25;;;;;;;;;;;;;;;;;;5035436;28;19897;-74
2021/08/25 05:33:51;;;;;;;;;;;;;;;;;;5021203;28;19970;-75
2021/08/25 05:36:16;;;;;;;;;;;;;;;;;;5012627;28;19960;-75
2021/08/25 05:38:41;;;;;;;;;;;;;;;;;;5052032;28;19940;-75
2021/08/25 05:41:06;;;;;;;;;;;;;;;;;;5039793;28;19921;-75
2021/08/25 05:43:34;;;;;;;;;;;;;;;;;;5017587;28;20294;-75
2021/08/25 05:45:59;;;;;;;;;;;;;;;;;;5023616;28;19901;-75
2021/08/25 05:48:24;;;;;;;;;;;;;;;;;;5023217;28;19922;-74
2021/08/25 05:50:49;;;;;;;;;;;;;;;;;;5054226;28;19963;-74
2021/08/25 05:53:15;;;;;;;;;;;;;;;;;;5025886;28;19917;-75
2021/08/25 05:55:40;;;;;;;;;;;;;;;;;;5022527;28;20271;-75
2021/08/25 05:58:05;;;;;;;;;;;;;;;;;;5022761;28;19914;-74
2021/08/25 06:00:30;;;;;;;;;;;;;;;;;;5028667;28;19933;-75
2021/08/25 06:02:58;;;;;;;;;;;;;;;;;;5024632;28;19969;-74
2021/08/25 06:05:23;;;;;;;;;;;;;;;;;;5022520;28;19914;-75
2021/08/25 06:07:48;;;;;;;;;;;;;;;;;;5020563;28;19924;-75
2021/08/25 06:10:14;;;;;;;;;;;;;;;;;;5025004;28;19924;-75
2021/08/25 06:12:39;;;;;;;;;;;;;;;;;;5024444;28;19953;-75
2021/08/25 06:15:04;;;;;;;;;;;;;;;;;;5023558;28;19922;-74
2021/08/25 06:17:29;;;;;;;;;;;;;;;;;;5054159;28;19906;-74
2021/08/25 06:19:55;;;;;;;;;;;;;;;;;;5019738;28;19918;-75
2021/08/25 06:22:20;;;;;;;;;;;;;;;;;;5022904;28;20008;-75
2021/08/25 06:24:45;;;;;;;;;;;;;;;;;;5024690;28;19909;-75
2021/08/25 06:27:10;;;;;;;;;;;;;;;;;;5024739;28;20370;-74
2021/08/25 06:29:36;;;;;;;;;;;;;;;;;;5023328;28;20008;-75
2021/08/25 06:32:01;;;;;;;;;;;;;;;;;;5026230;28;19922;-76
2021/08/25 06:34:26;;;;;;;;;;;;;;;;;;5038429;28;19922;-76
2021/08/25 06:36:51;;;;;;;;;;;;;;;;;;5025147;28;19932;-74
2021/08/25 06:39:17;;;;;;;;;;;;;;;;;;5025694;28;19944;-75
2021/08/25 06:41:42;;;;;;;;;;;;;;;;;;5041115;28;19912;-73
2021/08/25 06:44:07;;;;;;;;;;;;;;;;;;5021004;28;19998;-70
2021/08/25 06:46:32;;;;;;;;;;;;;;;;;;5019673;28;19917;-70
2021/08/25 06:48:58;;;;;;;;;;;;;;;;;;5019361;28;19917;-69
2021/08/25 06:51:23;;;;;;;;;;;;;;;;;;5023856;28;19917;-70
2021/08/25 06:53:48;;;;;;;;;;;;;;;;;;5029128;28;19937;-70
2021/08/25 06:56:13;;;;;;;;;;;;;;;;;;5024231;28;19906;-70
2021/08/25 06:58:38;;;;;;;;;;;;;;;;;;5024998;28;19922;-70
2021/08/25 07:01:04;;;;;;;;;;;;;;;;;;5023722;28;20418;-70
2021/08/25 07:03:29;;;;;;;;;;;;;;;;;;5022743;28;19914;-70
2021/08/25 07:05:54;;;;;;;;;;;;;;;;;;5021176;28;19918;-70
2021/08/25 07:08:19;;;;;;;;;;;;;;;;;;5053655;28;19932;-70
2021/08/25 07:10:45;;;;;;;;;;;;;;;;;;5050662;28;19917;-69
2021/08/25 07:13:10;;;;;;;;;;;;;;;;;;5055577;28;19929;-69
2021/08/25 07:15:35;;;;;;;;;;;;;;;;;;5017761;28;19917;-69
2021/08/25 07:18:00;;;;;;;;;;;;;;;;;;5020359;28;19921;-69
2021/08/25 07:20:25;;;;;;;;;;;;;;;;;;5021799;28;19902;-69
2021/08/25 07:22:51;;;;;;;;;;;;;;;;;;5041847;28;19981;-72
2021/08/25 07:25:18;;;;;;;;;;;;;;;;;;5022762;28;19918;-72
2021/08/25 07:27:43;;;;;;;;;;;;;;;;;;5054588;28;19917;-72
2021/08/25 07:30:09;;;;;;;;;;;;;;;;;;5037284;28;19945;-75
2021/08/25 07:32:34;;;;;;;;;;;;;;;;;;5022864;28;19917;-74
2021/08/25 07:34:59;;;;;;;;;;;;;;;;;;5054169;28;19922;-74
2021/08/25 07:37:25;;;;;;;;;;;;;;;;;;5039285;28;19913;-74
2021/08/25 07:39:50;;;;;;;;;;;;;;;;;;5021533;28;19918;-73
2021/08/25 07:42:15;;;;;;;;;;;;;;;;;;5024615;28;19906;-73
2021/08/25 07:44:40;;;;;;;;;;;;;;;;;;5038549;28;19921;-73
2021/08/25 07:47:06;;;;;;;;;;;;;;;;;;5019712;28;20574;-73
2021/08/25 07:49:31;;;;;;;;;;;;;;;;;;5021862;28;21215;-73
2021/08/25 07:51:58;;;;;;;;;;;;;;;;;;5022524;28;19913;-73
2021/08/25 07:54:23;;;;;;;;;;;;;;;;;;5021903;28;19929;-73
2021/08/25 07:56:49;;;;;;;;;;;;;;;;;;5020488;28;19922;-73
2021/08/25 07:59:16;;;;;;;;;;;;;;;;;;5052959;28;19937;-73
2021/08/25 08:01:41;;;;;;;;;;;;;;;;;;5053690;28;19909;-73
2021/08/25 08:04:07;;;;;;;;;;;;;;;;;;5023336;28;19924;-73
2021/08/25 08:06:32;;;;;;;;;;;;;;;;;;5023179;28;19902;-73
2021/08/25 08:08:57;;;;;;;;;;;;;;;;;;5055044;28;19941;-73
2021/08/25 08:11:22;;;;;;;;;;;;;;;;;;5019864;28;19921;-73
2021/08/25 08:13:47;;;;;;;;;;;;;;;;;;5020065;28;19918;-73
2021/08/25 08:16:17;;;;;;;;;;;;;;;;;;5022644;28;19906;-71
2021/08/25 08:18:54;;;;;;;;;;;;;;;;;;5037684;28;19988;-71
2021/08/25 08:21:19;;;;;;;;;;;;;;;;;;5026816;28;19918;-71
2021/08/25 08:23:44;;;;;;;;;;;;;;;;;;5027198;28;19941;-73
2021/08/25 08:26:09;;;;;;;;;;;;;;;;;;5024232;28;19909;-73
2021/08/25 08:28:35;;;;;;;;;;;;;;;;;;5026632;28;19925;-73
2021/08/25 08:31:00;;;;;;;;;;;;;;;;;;5025599;28;19916;-71
2021/08/25 08:33:25;;;;;;;;;;;;;;;;;;5040339;28;19917;-73
2021/08/25 08:35:50;;;;;;;;;;;;;;;;;;5031139;28;19925;-72
2021/08/25 08:38:16;;;;;;;;;;;;;;;;;;5026415;28;19905;-71
2021/08/25 08:40:41;;;;;;;;;;;;;;;;;;5025484;28;19976;-69
2021/08/25 08:43:06;;;;;;;;;;;;;;;;;;5026344;28;19929;-73
2021/08/25 08:45:31;;;;;;;;;;;;;;;;;;5024287;28;19918;-69
2021/08/25 08:47:57;;;;;;;;;;;;;;;;;;5025024;28;19937;-69
2021/08/25 08:50:24;;;;;;;;;;;;;;;;;;5027860;28;19949;-69
2021/08/25 08:52:49;;;;;;;;;;;;;;;;;;5025329;28;19922;-69
2021/08/25 08:55:15;;;;;;;;;;;;;;;;;;5023313;28;19921;-69
2021/08/25 08:57:40;;;;;;;;;;;;;;;;;;5023658;28;19918;-70
2021/08/25 09:00:05;;;;;;;;;;;;;;;;;;5023140;28;19913;-69
2021/08/25 09:02:30;;;;;;;;;;;;;;;;;;5026902;28;20127;-70
2021/08/25 09:04:55;;;;;;;;;;;;;;;;;;5026200;28;19925;-70
2021/08/25 09:07:21;;;;;;;;;;;;;;;;;;5057024;28;19917;-71
2021/08/25 09:09:46;;;;;;;;;;;;;;;;;;5023948;28;19922;-70
2021/08/25 09:12:11;;;;;;;;;;;;;;;;;;5027279;28;19921;-69
2021/08/25 09:14:36;;;;;;;;;;;;;;;;;;5058200;28;19985;-71
2021/08/25 09:17:02;;;;;;;;;;;;;;;;;;5054965;28;19960;-70
2021/08/25 09:19:27;;;;;;;;;;;;;;;;;;5054782;28;19925;-70
2021/08/25 09:21:53;;;;;;;;;;;;;;;;;;5023407;28;19995;-70
2021/08/25 09:24:18;;;;;;;;;;;;;;;;;;5024536;28;19925;-72
2021/08/25 09:26:43;;;;;;;;;;;;;;;;;;5022771;28;19981;-70
2021/08/25 09:29:08;;;;;;;;;;;;;;;;;;5021751;28;20138;-69
2021/08/25 09:31:33;;;;;;;;;;;;;;;;;;5026613;28;19925;-69
2021/08/25 09:33:59;;;;;;;;;;;;;;;;;;5022082;28;19918;-70
2021/08/25 09:36:24;;;;;;;;;;;;;;;;;;5024803;28;19932;-70
2021/08/25 09:38:49;;;;;;;;;;;;;;;;;;5023532;28;19933;-69
2021/08/25 09:41:14;;;;;;;;;;;;;;;;;;5019735;28;19914;-70
2021/08/25 09:43:40;;;;;;;;;;;;;;;;;;5024850;28;19917;-69
2021/08/25 09:46:05;;;;;;;;;;;;;;;;;;5011293;28;19916;-69
2021/08/25 09:48:30;;;;;;;;;;;;;;;;;;5027337;28;19918;-70
2021/08/25 09:50:55;;;;;;;;;;;;;;;;;;5022353;28;19949;-70
2021/08/25 09:53:20;;;;;;;;;;;;;;;;;;5026658;28;19929;-70
2021/08/25 09:55:46;;;;;;;;;;;;;;;;;;5024349;28;19913;-70
2021/08/25 09:58:11;;;;;;;;;;;;;;;;;;5020069;28;19949;-69
2021/08/25 10:00:36;;;;;;;;;;;;;;;;;;5019411;28;19913;-70
2021/08/25 10:03:02;;;;;;;;;;;;;;;;;;5023005;28;20512;-70
2021/08/25 10:05:27;;;;;;;;;;;;;;;;;;5022716;28;19909;-70
2021/08/25 10:07:52;;;;;;;;;;;;;;;;;;5022623;28;19920;-70
2021/08/25 10:10:17;;;;;;;;;;;;;;;;;;5020526;28;19972;-70
2021/08/25 10:12:43;;;;;;;;;;;;;;;;;;5053083;28;19916;-70
2021/08/25 10:15:10;;;;;;;;;;;;;;;;;;5018706;28;19922;-70
2021/08/25 10:17:35;;;;;;;;;;;;;;;;;;5039082;28;19914;-70
2021/08/25 10:20:03;;;;;;;;;;;;;;;;;;5020730;28;19922;-70
2021/08/25 10:22:28;;;;;;;;;;;;;;;;;;5023337;28;19917;-70
2021/08/25 10:24:54;;;;;;;;;;;;;;;;;;5022010;28;19920;-70
2021/08/25 10:27:19;;;;;;;;;;;;;;;;;;5023150;28;19905;-70
2021/08/25 10:29:44;;;;;;;;;;;;;;;;;;5022410;28;19981;-70
2021/08/25 10:32:09;;;;;;;;;;;;;;;;;;5019463;28;19923;-71
2021/08/25 10:34:38;;;;;;;;;;;;;;;;;;5038200;28;19921;-70
2021/08/25 10:37:03;;;;;;;;;;;;;;;;;;5020770;28;19921;-70
2021/08/25 10:39:29;;;;;;;;;;;;;;;;;;5021205;28;20450;-70
2021/08/25 10:41:54;;;;;;;;;;;;;;;;;;5026032;28;20014;-70
2021/08/25 10:44:19;;;;;;;;;;;;;;;;;;5023054;28;19909;-70
2021/08/25 10:46:44;;;;;;;;;;;;;;;;;;5021157;28;19921;-70
2021/08/25 10:49:10;;;;;;;;;;;;;;;;;;5053417;28;19998;-71
2021/08/25 10:51:35;;;;;;;;;;;;;;;;;;5039131;28;19917;-70
2021/08/25 10:54:00;;;;;;;;;;;;;;;;;;5024587;28;19921;-70
2021/08/25 10:56:25;;;;;;;;;;;;;;;;;;5054232;28;19905;-71
2021/08/25 10:59:02;;;;;;;;;;;;;;;;;;5021838;28;19913;-70
2021/08/25 11:01:30;;;;;;;;;;;;;;;;;;5056778;28;19902;-70
2021/08/25 11:03:56;;;;;;;;;;;;;;;;;;5026932;28;19902;-70
2021/08/25 11:06:21;;;;;;;;;;;;;;;;;;5024375;28;19902;-70
2021/08/25 11:08:46;;;;;;;;;;;;;;;;;;5024027;28;19924;-70
2021/08/25 11:11:11;;;;;;;;;;;;;;;;;;5039663;28;19929;-70
2021/08/25 11:13:36;;;;;;;;;;;;;;;;;;5028594;28;19936;-70
2021/08/25 11:16:02;;;;;;;;;;;;;;;;;;5024232;28;19971;-70
2021/08/25 11:18:27;;;;;;;;;;;;;;;;;;5029602;28;19973;-70
2021/08/25 11:20:52;;;;;;;;;;;;;;;;;;5024273;28;19917;-70
2021/08/25 11:23:17;;;;;;;;;;;;;;;;;;5023111;28;19902;-70
2021/08/25 11:25:43;;;;;;;;;;;;;;;;;;5040213;28;19914;-70
2021/08/25 11:28:08;;;;;;;;;;;;;;;;;;5056049;28;19914;-70
2021/08/25 11:30:35;;;;;;;;;;;;;;;;;;5037065;28;19898;-70
2021/08/25 11:33:00;;;;;;;;;;;;;;;;;;5021964;28;19936;-70
2021/08/25 11:35:25;;;;;;;;;;;;;;;;;;5022076;28;19905;-70
2021/08/25 11:37:51;;;;;;;;;;;;;;;;;;5057678;28;19924;-70
2021/08/25 11:40:16;;;;;;;;;;;;;;;;;;5024865;28;19913;-70
2021/08/25 11:42:41;;;;;;;;;;;;;;;;;;5021764;28;19911;-70
2021/08/25 11:45:09;;;;;;;;;;;;;;;;;;5022088;28;19929;-70
2021/08/25 11:47:34;;;;;;;;;;;;;;;;;;5022345;28;19921;-70
2021/08/25 11:49:59;;;;;;;;;;;;;;;;;;5023204;28;19897;-70
2021/08/25 11:52:27;;;;;;;;;;;;;;;;;;5022340;28;19909;-70
2021/08/25 11:54:52;;;;;;;;;;;;;;;;;;5023911;28;19928;-70
2021/08/25 11:57:17;;;;;;;;;;;;;;;;;;5021652;28;19978;-70
2021/08/25 11:59:43;;;;;;;;;;;;;;;;;;5035099;28;19905;-71
2021/08/25 12:02:08;;;;;;;;;;;;;;;;;;5024045;28;19948;-71
2021/08/25 12:04:33;;;;;;;;;;;;;;;;;;5012893;28;19929;-70
2021/08/25 12:06:58;;;;;;;;;;;;;;;;;;5019253;28;19977;-70
2021/08/25 12:09:24;;;;;;;;;;;;;;;;;;5022095;28;19914;-70
2021/08/25 12:11:49;;;;;;;;;;;;;;;;;;5024940;28;19901;-70
2021/08/25 12:14:14;;;;;;;;;;;;;;;;;;5022637;28;19944;-70
2021/08/25 12:16:39;;;;;;;;;;;;;;;;;;5023047;28;19921;-71
2021/08/25 12:19:05;;;;;;;;;;;;;;;;;;5022253;28;19902;-70
2021/08/25 12:21:30;;;;;;;;;;;;;;;;;;5020413;28;19918;-70
2021/08/25 12:23:56;;;;;;;;;;;;;;;;;;5021216;28;19917;-71
2021/08/25 12:26:21;;;;;;;;;;;;;;;;;;5026552;28;20263;-70
2021/08/25 12:28:46;;;;;;;;;;;;;;;;;;5023584;28;19976;-70
2021/08/25 12:31:11;;;;;;;;;;;;;;;;;;5038666;28;19997;-70
2021/08/25 12:33:37;;;;;;;;;;;;;;;;;;5023769;28;19905;-71
2021/08/25 12:36:02;;;;;;;;;;;;;;;;;;5023187;28;19997;-70
2021/08/25 12:38:27;;;;;;;;;;;;;;;;;;5028156;28;20373;-70
2021/08/25 12:40:52;;;;;;;;;;;;;;;;;;5027287;28;19921;-70
2021/08/25 12:43:18;;;;;;;;;;;;;;;;;;5020337;28;19898;-70
2021/08/25 12:45:43;;;;;;;;;;;;;;;;;;5038635;28;19918;-71
2021/08/25 12:48:08;;;;;;;;;;;;;;;;;;5019316;28;19932;-71
2021/08/25 12:50:33;;;;;;;;;;;;;;;;;;5021392;28;19906;-71
2021/08/25 12:52:59;;;;;;;;;;;;;;;;;;5024057;28;19924;-70
2021/08/25 12:55:24;;;;;;;;;;;;;;;;;;5021129;28;19906;-71
2021/08/25 12:57:49;;;;;;;;;;;;;;;;;;5021475;28;19932;-71
2021/08/25 13:00:14;;;;;;;;;;;;;;;;;;5021585;28;20008;-71
2021/08/25 13:02:40;;;;;;;;;;;;;;;;;;5017964;28;19972;-71
2021/08/25 13:05:06;;;;;;;;;;;;;;;;;;5042461;28;19976;-70
2021/08/25 13:07:31;;;;;;;;;;;;;;;;;;5026892;28;19913;-70
2021/08/25 13:09:56;;;;;;;;;;;;;;;;;;5025150;28;19940;-71
2021/08/25 13:12:21;;;;;;;;;;;;;;;;;;5041428;28;19909;-71
2021/08/25 13:14:49;;;;;;;;;;;;;;;;;;5026247;28;19955;-71
2021/08/25 13:17:14;;;;;;;;;;;;;;;;;;5023819;28;19921;-71
2021/08/25 13:19:39;;;;;;;;;;;;;;;;;;5058087;28;19972;-71
2021/08/25 13:22:05;;;;;;;;;;;;;;;;;;5031977;28;19998;-70
2021/08/25 13:24:30;;;;;;;;;;;;;;;;;;5028655;28;19945;-71
2021/08/25 13:26:55;;;;;;;;;;;;;;;;;;5026692;28;19901;-71
2021/08/25 13:29:20;;;;;;;;;;;;;;;;;;5026701;28;19987;-71
2021/08/25 13:31:45;;;;;;;;;;;;;;;;;;5025983;28;19908;-71
2021/08/25 13:34:11;;;;;;;;;;;;;;;;;;5024531;28;19924;-71
2021/08/25 13:36:36;;;;;;;;;;;;;;;;;;5023901;28;19928;-71
2021/08/25 13:39:01;;;;;;;;;;;;;;;;;;5023050;28;20190;-71
2021/08/25 13:41:26;;;;;;;;;;;;;;;;;;5024181;28;19914;-71
2021/08/25 13:43:52;;;;;;;;;;;;;;;;;;5026597;28;19918;-71
2021/08/25 13:46:17;;;;;;;;;;;;;;;;;;5057204;28;19929;-71
2021/08/25 13:48:42;;;;;;;;;;;;;;;;;;5025854;28;19922;-71
2021/08/25 13:51:07;;;;;;;;;;;;;;;;;;5025735;28;19913;-71
2021/08/25 13:53:33;;;;;;;;;;;;;;;;;;5024803;28;19925;-70
2021/08/25 13:55:58;;;;;;;;;;;;;;;;;;5039422;28;19921;-70
2021/08/25 13:58:23;;;;;;;;;;;;;;;;;;5029649;28;19933;-71
2021/08/25 14:00:49;;;;;;;;;;;;;;;;;;5022740;28;19924;-71
2021/08/25 14:03:14;;;;;;;;;;;;;;;;;;5023163;28;20081;-71
2021/08/25 14:05:39;;;;;;;;;;;;;;;;;;5055529;28;19988;-71
2021/08/25 14:08:04;;;;;;;;;;;;;;;;;;5031826;28;20267;-71
2021/08/25 14:10:30;;;;;;;;;;;;;;;;;;5024940;28;19929;-71
2021/08/25 14:12:56;;;;;;;;;;;;;;;;;;5025096;28;20009;-71
2021/08/25 14:15:23;;;;;;;;;;;;;;;;;;5027465;28;20290;-71
2021/08/25 14:17:48;;;;;;;;;;;;;;;;;;5026336;28;19933;-71
2021/08/25 14:20:14;;;;;;;;;;;;;;;;;;5025644;28;19921;-71
2021/08/25 14:22:39;;;;;;;;;;;;;;;;;;5025525;28;19935;-71
2021/08/25 14:25:04;;;;;;;;;;;;;;;;;;5025213;28;19916;-71
2021/08/25 14:27:30;;;;;;;;;;;;;;;;;;5055486;28;20108;-71
2021/08/25 14:29:55;;;;;;;;;;;;;;;;;;5021012;28;19919;-71
2021/08/25 14:32:20;;;;;;;;;;;;;;;;;;5024218;28;19918;-71
2021/08/25 14:34:45;;;;;;;;;;;;;;;;;;5030318;28;19905;-71
2021/08/25 14:37:10;;;;;;;;;;;;;;;;;;5027026;28;19956;-71
2021/08/25 14:39:36;;;;;;;;;;;;;;;;;;5037620;28;19914;-71
2021/08/25 14:42:01;;;;;;;;;;;;;;;;;;5023479;28;19909;-71
2021/08/25 14:44:26;;;;;;;;;;;;;;;;;;5024321;28;19953;-70
2021/08/25 14:46:51;;;;;;;;;;;;;;;;;;5024495;28;19905;-70
2021/08/25 14:49:20;;;;;;;;;;;;;;;;;;5025393;28;19922;-70
2021/08/25 14:51:45;;;;;;;;;;;;;;;;;;5023012;28;19924;-70
2021/08/25 14:54:12;;;;;;;;;;;;;;;;;;5023269;28;19932;-71
2021/08/25 14:56:39;;;;;;;;;;;;;;;;;;5023060;28;19906;-71
2021/08/25 14:59:04;;;;;;;;;;;;;;;;;;5023847;28;19913;-70
2021/08/25 15:01:29;;;;;;;;;;;;;;;;;;5022969;28;19999;-70
2021/08/25 15:03:54;;;;;;;;;;;;;;;;;;5022051;28;19917;-70
2021/08/25 15:06:20;;;;;;;;;;;;;;;;;;5025925;28;19909;-71
2021/08/25 15:08:45;;;;;;;;;;;;;;;;;;5022136;28;19920;-70
2021/08/25 15:11:11;;;;;;;;;;;;;;;;;;5021613;28;19917;-70
2021/08/25 15:13:38;;;;;;;;;;;;;;;;;;5025436;28;19917;-71
2021/08/25 15:16:03;;;;;;;;;;;;;;;;;;5024479;28;19951;-70
2021/08/25 15:18:28;;;;;;;;;;;;;;;;;;5021582;28;19925;-70
2021/08/25 15:20:54;;;;;;;;;;;;;;;;;;5025000;28;19902;-70
2021/08/25 15:23:19;;;;;;;;;;;;;;;;;;5027102;28;19910;-70
2021/08/25 15:25:45;;;;;;;;;;;;;;;;;;5019914;28;19909;-70
2021/08/25 15:28:10;;;;;;;;;;;;;;;;;;5025438;28;19928;-70
2021/08/25 15:30:35;;;;;;;;;;;;;;;;;;5025877;28;19948;-70
2021/08/25 15:33:00;;;;;;;;;;;;;;;;;;5025090;28;19928;-71
2021/08/25 15:35:27;;;;;;;;;;;;;;;;;;5020780;28;19944;-70
2021/08/25 15:37:52;;;;;;;;;;;;;;;;;;5023413;28;19940;-70
2021/08/25 15:40:19;;;;;;;;;;;;;;;;;;5022185;28;19910;-70
2021/08/25 15:42:45;;;;;;;;;;;;;;;;;;5026022;28;19897;-70
2021/08/25 15:45:10;;;;;;;;;;;;;;;;;;5024023;28;19905;-71
2021/08/25 15:47:37;;;;;;;;;;;;;;;;;;5024578;28;19906;-70
2021/08/25 15:50:02;;;;;;;;;;;;;;;;;;5024019;28;19906;-70
2021/08/25 15:52:27;;;;;;;;;;;;;;;;;;5035741;28;19924;-70
2021/08/25 15:54:52;;;;;;;;;;;;;;;;;;5054509;28;19925;-70
2021/08/25 15:57:17;;;;;;;;;;;;;;;;;;5023277;28;19917;-70
2021/08/25 15:59:43;;;;;;;;;;;;;;;;;;5027330;28;19941;-70
2021/08/25 16:02:08;;;;;;;;;;;;;;;;;;5022997;28;19902;-70
2021/08/25 16:04:33;;;;;;;;;;;;;;;;;;5022945;28;19921;-70
2021/08/25 16:06:58;;;;;;;;;;;;;;;;;;5051855;28;19902;-70
2021/08/25 16:09:24;;;;;;;;;;;;;;;;;;5024686;28;19944;-70
2021/08/25 16:11:49;;;;;;;;;;;;;;;;;;5022544;28;19978;-71
2021/08/25 16:14:14;;;;;;;;;;;;;;;;;;5023200;28;19968;-71
2021/08/25 16:16:39;;;;;;;;;;;;;;;;;;5054763;28;19917;-71
2021/08/25 16:19:05;;;;;;;;;;;;;;;;;;5022494;28;19908;-70
2021/08/25 16:21:30;;;;;;;;;;;;;;;;;;5024980;28;19917;-70
2021/08/25 16:23:55;;;;;;;;;;;;;;;;;;5023024;28;19905;-71
2021/08/25 16:26:20;;;;;;;;;;;;;;;;;;5019348;28;19905;-71
2021/08/25 16:28:45;;;;;;;;;;;;;;;;;;5025376;28;19921;-70
2021/08/25 16:31:11;;;;;;;;;;;;;;;;;;5023877;28;19902;-70
2021/08/25 16:33:38;;;;;;;;;;;;;;;;;;5021324;28;19913;-71